createdAt,value
2023-01-13T00:00:46.752Z,996.46
2023-01-13T00:01:46.708Z,996.50
2023-01-13T00:02:46.722Z,996.48
2023-01-13T00:03:46.675Z,996.48
2023-01-13T00:04:46.709Z,996.53
2023-01-13T00:05:46.654Z,996.55
2023-01-13T00:06:46.652Z,996.49
2023-01-13T00:07:46.623Z,996.54
2023-01-13T00:08:46.631Z,996.47
2023-01-13T00:09:46.628Z,996.56
2023-01-13T00:10:46.609Z,996.48
2023-01-13T00:11:46.616Z,996.51
2023-01-13T00:12:46.563Z,996.43
2023-01-13T00:13:46.572Z,996.47
2023-01-13T00:14:46.567Z,996.46
2023-01-13T00:15:46.580Z,996.46
2023-01-13T00:16:46.596Z,996.49
2023-01-13T00:17:46.520Z,996.44
2023-01-13T00:18:46.519Z,996.38
2023-01-13T00:19:46.549Z,996.38
2023-01-13T00:20:46.510Z,996.34
2023-01-13T00:21:46.519Z,996.36
2023-01-13T00:22:46.496Z,996.37
2023-01-13T00:23:46.459Z,996.32
2023-01-13T00:24:46.442Z,996.28
2023-01-13T00:25:46.446Z,996.29
2023-01-13T00:26:46.422Z,996.27
2023-01-13T00:27:46.436Z,996.29
2023-01-13T00:28:46.409Z,996.24
2023-01-13T00:29:46.396Z,996.25
2023-01-13T00:30:46.384Z,996.33
2023-01-13T00:31:46.399Z,996.23
2023-01-13T00:32:46.367Z,996.23
2023-01-13T00:33:46.381Z,996.21
2023-01-13T00:34:46.360Z,996.27
2023-01-13T00:35:46.337Z,996.25
2023-01-13T00:36:46.352Z,996.22
2023-01-13T00:37:46.319Z,996.22
2023-01-13T00:38:46.329Z,996.23
2023-01-13T00:39:46.328Z,996.19
2023-01-13T00:40:46.263Z,996.16
2023-01-13T00:41:46.281Z,996.16
2023-01-13T00:42:46.272Z,996.16
2023-01-13T00:43:46.242Z,996.20
2023-01-13T00:44:46.257Z,996.04
2023-01-13T00:45:46.225Z,996.06
2023-01-13T00:46:46.262Z,996.12
2023-01-13T00:47:46.208Z,996.04
2023-01-13T00:48:46.203Z,995.98
2023-01-13T00:49:46.215Z,996.02
2023-01-13T00:50:46.192Z,996.01
2023-01-13T00:51:46.169Z,995.97
2023-01-13T00:52:46.170Z,995.98
2023-01-13T00:53:46.146Z,996.04
2023-01-13T00:54:46.131Z,995.86
2023-01-13T00:55:46.135Z,995.97
2023-01-13T00:56:46.124Z,995.92
2023-01-13T00:57:46.088Z,995.89
2023-01-13T00:58:46.093Z,995.92
2023-01-13T00:59:47.151Z,995.96
2023-01-13T01:00:46.107Z,995.92
2023-01-13T01:01:46.192Z,995.92
2023-01-13T01:02:46.138Z,995.95
2023-01-13T01:03:46.037Z,995.98
2023-01-13T01:04:46.052Z,995.93
2023-01-13T01:05:46.015Z,995.89
2023-01-13T01:10:15.676Z,995.93
2023-01-13T01:11:15.662Z,995.91
2023-01-13T01:12:15.650Z,995.84
2023-01-13T01:13:15.605Z,995.87
2023-01-13T01:14:15.590Z,995.85
2023-01-13T01:15:15.589Z,995.88
2023-01-13T01:16:15.660Z,995.89
2023-01-13T01:17:15.576Z,995.80
2023-01-13T01:18:15.566Z,995.83
2023-01-13T01:19:15.552Z,995.84
2023-01-13T01:20:15.547Z,995.82
2023-01-13T01:21:15.515Z,995.77
2023-01-13T01:22:15.544Z,995.78
2023-01-13T01:23:15.490Z,995.77
2023-01-13T01:24:15.490Z,995.77
2023-01-13T01:25:15.478Z,995.78
2023-01-13T01:26:15.489Z,995.76
2023-01-13T01:27:15.474Z,995.75
2023-01-13T01:28:15.477Z,995.78
2023-01-13T01:29:15.439Z,995.78
2023-01-13T01:30:15.423Z,995.75
2023-01-13T01:31:15.431Z,995.69
2023-01-13T01:32:15.441Z,995.76
2023-01-13T01:33:15.391Z,995.82
2023-01-13T01:34:15.436Z,995.75
2023-01-13T01:35:15.376Z,995.74
2023-01-13T01:36:15.378Z,995.78
2023-01-13T01:37:15.372Z,995.77
2023-01-13T01:38:15.385Z,995.73
2023-01-13T01:39:15.351Z,995.76
2023-01-13T01:40:15.361Z,995.69
2023-01-13T01:41:15.330Z,995.68
2023-01-13T01:42:15.319Z,995.71
2023-01-13T01:43:15.312Z,995.68
2023-01-13T01:44:15.305Z,995.69
2023-01-13T01:45:15.267Z,995.82
2023-01-13T01:46:15.317Z,995.69
2023-01-13T01:47:15.256Z,995.67
2023-01-13T01:48:15.244Z,995.65
2023-01-13T01:49:15.250Z,995.56
2023-01-13T01:50:15.252Z,995.57
2023-01-13T01:51:15.227Z,995.62
2023-01-13T01:52:15.209Z,995.58
2023-01-13T01:53:15.199Z,995.60
2023-01-13T01:54:15.203Z,995.59
2023-01-13T01:55:15.191Z,995.60
2023-01-13T01:56:15.163Z,995.60
2023-01-13T01:57:15.188Z,995.52
2023-01-13T01:58:15.134Z,995.55
2023-01-13T01:59:15.148Z,995.60
2023-01-13T02:00:15.164Z,995.64
2023-01-13T02:01:15.352Z,995.57
2023-01-13T02:02:15.282Z,995.62
2023-01-13T02:03:15.103Z,995.66
2023-01-13T02:04:15.109Z,995.58
2023-01-13T02:05:15.127Z,995.59
2023-01-13T02:06:15.061Z,995.58
2023-01-13T02:07:15.052Z,995.55
2023-01-13T02:08:15.040Z,995.58
2023-01-13T02:09:15.045Z,995.57
2023-01-13T02:10:15.023Z,995.52
2023-01-13T02:11:15.016Z,995.54
2023-01-13T02:12:15.031Z,995.59
2023-01-13T02:13:14.987Z,995.56
2023-01-13T02:14:14.993Z,995.58
2023-01-13T02:15:15.008Z,995.58
2023-01-13T02:16:15.008Z,995.52
2023-01-13T02:17:14.984Z,995.53
2023-01-13T02:18:14.953Z,995.52
2023-01-13T02:19:14.939Z,995.52
2023-01-13T02:20:14.985Z,995.55
2023-01-13T02:21:14.924Z,995.51
2023-01-13T02:22:14.899Z,995.48
2023-01-13T02:23:14.903Z,995.54
2023-01-13T02:24:14.890Z,995.44
2023-01-13T02:25:14.868Z,995.46
2023-01-13T02:26:14.893Z,995.45
2023-01-13T02:27:14.867Z,995.44
2023-01-13T02:28:14.823Z,995.47
2023-01-13T02:29:14.848Z,995.40
2023-01-13T02:30:14.843Z,995.44
2023-01-13T02:31:14.871Z,995.41
2023-01-13T02:32:14.791Z,995.36
2023-01-13T02:33:14.791Z,995.37
2023-01-13T02:34:14.795Z,995.45
2023-01-13T02:35:14.783Z,995.39
2023-01-13T02:36:14.774Z,995.40
2023-01-13T02:37:14.779Z,995.40
2023-01-13T02:38:14.724Z,995.34
2023-01-13T02:39:14.770Z,995.24
2023-01-13T02:40:14.740Z,995.33
2023-01-13T02:41:14.689Z,995.31
2023-01-13T02:42:14.718Z,995.25
2023-01-13T02:43:14.692Z,995.30
2023-01-13T02:44:14.665Z,995.35
2023-01-13T02:45:14.674Z,995.31
2023-01-13T02:46:14.661Z,995.25
2023-01-13T02:47:14.653Z,995.26
2023-01-13T02:48:14.633Z,995.35
2023-01-13T02:49:14.622Z,995.27
2023-01-13T02:50:14.612Z,995.35
2023-01-13T02:51:14.612Z,995.33
2023-01-13T02:52:14.587Z,995.31
2023-01-13T02:53:14.582Z,995.30
2023-01-13T02:54:14.584Z,995.22
2023-01-13T02:55:14.584Z,995.27
2023-01-13T02:56:14.543Z,995.32
2023-01-13T02:57:14.577Z,995.26
2023-01-13T02:58:14.533Z,995.23
2023-01-13T02:59:14.528Z,995.18
2023-01-13T03:00:14.546Z,995.24
2023-01-13T03:01:14.606Z,995.28
2023-01-13T03:02:14.746Z,995.23
2023-01-13T03:03:14.513Z,995.17
2023-01-13T03:04:14.498Z,995.14
2023-01-13T03:05:14.492Z,995.15
2023-01-13T03:06:14.464Z,995.16
2023-01-13T03:07:14.450Z,995.25
2023-01-13T03:08:14.487Z,995.19
2023-01-13T03:09:14.436Z,995.10
2023-01-13T03:10:14.442Z,995.16
2023-01-13T03:11:14.408Z,995.12
2023-01-13T03:12:14.406Z,995.03
2023-01-13T03:13:14.375Z,995.10
2023-01-13T03:14:14.408Z,995.04
2023-01-13T03:15:14.352Z,995.04
2023-01-13T03:16:14.418Z,995.03
2023-01-13T03:17:14.345Z,994.97
2023-01-13T03:18:14.352Z,995.09
2023-01-13T03:19:14.397Z,994.97
2023-01-13T03:20:14.328Z,995.05
2023-01-13T03:21:14.314Z,994.97
2023-01-13T03:22:14.300Z,995.08
2023-01-13T03:23:14.292Z,995.02
2023-01-13T03:24:14.284Z,995.05
2023-01-13T03:25:14.307Z,995.06
2023-01-13T03:26:14.271Z,995.01
2023-01-13T03:27:14.233Z,994.97
2023-01-13T03:28:14.259Z,994.95
2023-01-13T03:29:14.235Z,995.09
2023-01-13T03:30:14.245Z,994.98
2023-01-13T03:31:14.209Z,994.99
2023-01-13T03:32:14.224Z,995.06
2023-01-13T03:33:14.193Z,995.01
2023-01-13T03:34:14.194Z,995.08
2023-01-13T03:35:14.162Z,995.11
2023-01-13T03:36:14.184Z,995.04
2023-01-13T03:37:14.138Z,995.04
2023-01-13T03:38:14.202Z,995.04
2023-01-13T03:39:14.118Z,995.02
2023-01-13T03:40:14.140Z,995.04
2023-01-13T03:41:14.096Z,994.97
2023-01-13T03:42:14.096Z,995.02
2023-01-13T03:43:14.093Z,995.00
2023-01-13T03:44:14.102Z,995.03
2023-01-13T03:45:14.064Z,995.00
2023-01-13T03:46:14.095Z,994.97
2023-01-13T03:47:14.035Z,994.97
2023-01-13T03:48:14.055Z,994.93
2023-01-13T03:49:14.027Z,994.97
2023-01-13T03:50:14.044Z,994.96
2023-01-13T03:51:13.998Z,994.92
2023-01-13T03:52:13.988Z,994.95
2023-01-13T03:53:14.016Z,994.91
2023-01-13T03:54:13.989Z,994.88
2023-01-13T03:55:13.970Z,994.87
2023-01-13T03:56:13.949Z,994.80
2023-01-13T03:57:13.928Z,994.85
2023-01-13T03:58:14.021Z,994.84
2023-01-13T03:59:13.916Z,994.89
2023-01-13T04:00:13.913Z,994.81
2023-01-13T04:01:13.990Z,994.82
2023-01-13T04:02:13.958Z,994.80
2023-01-13T04:03:13.878Z,994.81
2023-01-13T04:04:13.860Z,994.76
2023-01-13T04:05:13.861Z,994.75
2023-01-13T04:06:13.875Z,994.69
2023-01-13T04:07:13.843Z,994.72
2023-01-13T04:08:13.835Z,994.79
2023-01-13T04:09:13.825Z,994.72
2023-01-13T04:10:13.837Z,994.71
2023-01-13T04:11:13.817Z,994.64
2023-01-13T04:12:13.810Z,994.73
2023-01-13T04:13:13.780Z,994.74
2023-01-13T04:14:13.764Z,994.74
2023-01-13T04:15:13.761Z,994.76
2023-01-13T04:16:13.782Z,994.71
2023-01-13T04:17:13.753Z,994.72
2023-01-13T04:18:13.723Z,994.75
2023-01-13T04:19:13.733Z,994.71
2023-01-13T04:20:13.720Z,994.68
2023-01-13T04:21:13.710Z,994.63
2023-01-13T04:22:13.695Z,994.68
2023-01-13T04:23:13.669Z,994.67
2023-01-13T04:24:13.662Z,994.62
2023-01-13T04:25:13.690Z,994.67
2023-01-13T04:26:13.629Z,994.68
2023-01-13T04:27:13.658Z,994.63
2023-01-13T04:28:13.621Z,994.60
2023-01-13T04:29:15.645Z,994.63
2023-01-13T04:30:13.611Z,994.62
2023-01-13T04:31:13.649Z,994.56
2023-01-13T04:32:13.593Z,994.58
2023-01-13T04:33:13.578Z,994.60
2023-01-13T04:34:13.553Z,994.58
2023-01-13T04:35:13.566Z,994.59
2023-01-13T04:36:13.582Z,994.58
2023-01-13T04:37:13.557Z,994.59
2023-01-13T04:38:13.515Z,994.60
2023-01-13T04:39:13.513Z,994.56
2023-01-13T04:40:13.497Z,994.58
2023-01-13T04:41:13.508Z,994.54
2023-01-13T04:42:13.483Z,994.51
2023-01-13T04:43:13.468Z,994.53
2023-01-13T04:44:13.454Z,994.52
2023-01-13T04:45:13.465Z,994.56
2023-01-13T04:46:13.495Z,994.55
2023-01-13T04:47:13.434Z,994.51
2023-01-13T04:48:13.445Z,994.45
2023-01-13T04:49:13.424Z,994.47
2023-01-13T04:50:13.394Z,994.47
2023-01-13T04:51:13.393Z,994.45
2023-01-13T04:52:13.370Z,994.40
2023-01-13T04:53:13.408Z,994.39
2023-01-13T04:54:13.406Z,994.39
2023-01-13T04:55:13.368Z,994.35
2023-01-13T04:56:13.323Z,994.42
2023-01-13T04:57:13.335Z,994.39
2023-01-13T04:58:13.305Z,994.33
2023-01-13T04:59:13.378Z,994.32
2023-01-13T05:00:13.311Z,994.32
2023-01-13T05:01:13.371Z,994.34
2023-01-13T05:02:13.289Z,994.36
2023-01-13T05:03:13.289Z,994.33
2023-01-13T05:04:13.271Z,994.29
2023-01-13T05:05:13.243Z,994.32
2023-01-13T05:06:13.216Z,994.32
2023-01-13T05:07:13.223Z,994.22
2023-01-13T05:08:13.231Z,994.24
2023-01-13T05:09:13.231Z,994.21
2023-01-13T05:10:13.203Z,994.27
2023-01-13T05:11:13.232Z,994.27
2023-01-13T05:12:13.158Z,994.36
2023-01-13T05:13:13.161Z,994.25
2023-01-13T05:14:13.162Z,994.24
2023-01-13T05:15:13.151Z,994.29
2023-01-13T05:16:13.157Z,994.17
2023-01-13T05:17:13.127Z,994.25
2023-01-13T05:18:13.111Z,994.18
2023-01-13T05:19:13.116Z,994.25
2023-01-13T05:20:13.131Z,994.20
2023-01-13T05:21:13.106Z,994.16
2023-01-13T05:22:13.063Z,994.15
2023-01-13T05:23:13.068Z,994.16
2023-01-13T05:24:13.042Z,994.25
2023-01-13T05:25:13.106Z,994.25
2023-01-13T05:26:13.044Z,994.21
2023-01-13T05:27:13.068Z,994.17
2023-01-13T05:28:13.005Z,994.21
2023-01-13T05:29:13.017Z,994.20
2023-01-13T05:30:12.973Z,994.19
2023-01-13T05:31:13.028Z,994.20
2023-01-13T05:32:12.990Z,994.17
2023-01-13T05:33:12.984Z,994.19
2023-01-13T05:34:12.936Z,994.17
2023-01-13T05:35:12.971Z,994.11
2023-01-13T05:36:12.919Z,994.15
2023-01-13T05:37:12.917Z,994.10
2023-01-13T05:38:12.941Z,994.18
2023-01-13T05:39:12.931Z,994.19
2023-01-13T05:40:12.896Z,994.15
2023-01-13T05:41:12.893Z,994.21
2023-01-13T05:42:12.852Z,994.25
2023-01-13T05:43:12.875Z,994.28
2023-01-13T05:44:12.865Z,994.33
2023-01-13T05:45:12.871Z,994.26
2023-01-13T05:46:12.849Z,994.29
2023-01-13T05:47:12.825Z,994.37
2023-01-13T05:48:12.799Z,994.32
2023-01-13T05:49:12.800Z,994.29
2023-01-13T05:50:12.789Z,994.25
2023-01-13T05:51:12.775Z,994.28
2023-01-13T05:52:12.778Z,994.24
2023-01-13T05:53:12.763Z,994.21
2023-01-13T05:54:12.750Z,994.28
2023-01-13T05:55:12.758Z,994.25
2023-01-13T05:56:12.716Z,994.28
2023-01-13T05:57:12.765Z,994.29
2023-01-13T05:58:12.685Z,994.28
2023-01-13T05:59:12.695Z,994.26
2023-01-13T06:00:12.663Z,994.29
2023-01-13T06:01:12.754Z,994.36
2023-01-13T06:02:12.662Z,994.29
2023-01-13T06:03:12.694Z,994.32
2023-01-13T06:04:12.688Z,994.33
2023-01-13T06:05:12.642Z,994.27
2023-01-13T06:06:12.648Z,994.27
2023-01-13T06:07:12.609Z,994.27
2023-01-13T06:08:12.601Z,994.30
2023-01-13T06:09:12.604Z,994.29
2023-01-13T06:10:12.602Z,994.30
2023-01-13T06:11:12.583Z,994.31
2023-01-13T06:12:12.561Z,994.33
2023-01-13T06:13:12.552Z,994.37
2023-01-13T06:14:12.561Z,994.39
2023-01-13T06:15:12.563Z,994.39
2023-01-13T06:16:12.576Z,994.41
2023-01-13T06:17:12.533Z,994.41
2023-01-13T06:18:12.479Z,994.44
2023-01-13T06:19:12.482Z,994.46
2023-01-13T06:20:12.481Z,994.44
2023-01-13T06:21:12.452Z,994.54
2023-01-13T06:22:12.474Z,994.60
2023-01-13T06:23:12.456Z,994.70
2023-01-13T06:24:12.440Z,994.85
2023-01-13T06:25:12.427Z,994.99
2023-01-13T06:26:12.410Z,995.12
2023-01-13T06:27:12.464Z,995.11
2023-01-13T06:28:12.395Z,995.25
2023-01-13T06:29:12.407Z,995.24
2023-01-13T06:30:12.380Z,995.20
2023-01-13T06:31:12.432Z,995.23
2023-01-13T06:32:12.373Z,995.17
2023-01-13T06:33:12.389Z,995.25
2023-01-13T06:34:12.339Z,995.25
2023-01-13T06:35:12.355Z,995.21
2023-01-13T06:36:12.291Z,995.24
2023-01-13T06:37:12.317Z,995.29
2023-01-13T06:38:12.311Z,995.28
2023-01-13T06:39:12.289Z,995.35
2023-01-13T06:40:12.274Z,995.27
2023-01-13T06:41:12.275Z,995.50
2023-01-13T06:42:12.266Z,995.48
2023-01-13T06:43:14.432Z,995.59
2023-01-13T06:44:12.237Z,995.55
2023-01-13T06:45:12.241Z,995.58
2023-01-13T06:46:12.206Z,995.60
2023-01-13T06:47:12.207Z,995.56
2023-01-13T06:48:12.204Z,995.56
2023-01-13T06:49:12.179Z,995.60
2023-01-13T06:50:12.153Z,995.60
2023-01-13T06:51:12.214Z,995.54
2023-01-13T06:52:12.150Z,995.54
2023-01-13T06:53:12.141Z,995.61
2023-01-13T06:54:12.151Z,995.55
2023-01-13T06:55:12.133Z,995.59
2023-01-13T06:56:12.110Z,995.58
2023-01-13T06:57:12.138Z,995.61
2023-01-13T06:58:12.075Z,995.61
2023-01-13T06:59:12.100Z,995.65
2023-01-13T07:00:12.070Z,995.68
2023-01-13T07:01:12.174Z,995.73
2023-01-13T07:02:12.227Z,995.80
2023-01-13T07:03:12.051Z,995.78
2023-01-13T07:04:12.040Z,995.83
2023-01-13T07:05:12.027Z,995.82
2023-01-13T07:06:12.006Z,995.85
2023-01-13T07:07:12.021Z,995.82
2023-01-13T07:08:11.978Z,995.83
2023-01-13T07:09:12.011Z,995.72
2023-01-13T07:10:11.973Z,995.77
2023-01-13T07:11:11.961Z,995.76
2023-01-13T07:12:11.944Z,995.76
2023-01-13T07:13:11.942Z,995.81
2023-01-13T07:14:11.929Z,995.90
2023-01-13T07:15:11.917Z,995.88
2023-01-13T07:16:11.905Z,995.76
2023-01-13T07:17:11.898Z,995.78
2023-01-13T07:18:11.895Z,995.76
2023-01-13T07:19:11.880Z,995.66
2023-01-13T07:20:11.890Z,995.73
2023-01-13T07:21:11.863Z,995.65
2023-01-13T07:22:11.838Z,995.58
2023-01-13T07:23:11.843Z,995.56
2023-01-13T07:24:11.819Z,995.58
2023-01-13T07:25:11.873Z,995.49
2023-01-13T07:26:11.840Z,995.50
2023-01-13T07:27:11.792Z,995.62
2023-01-13T07:28:11.765Z,995.76
2023-01-13T07:29:11.773Z,995.83
2023-01-13T07:30:11.771Z,995.85
2023-01-13T07:31:11.785Z,995.90
2023-01-13T07:32:11.719Z,995.91
2023-01-13T07:33:11.741Z,995.94
2023-01-13T07:34:11.725Z,996.01
2023-01-13T07:35:11.713Z,995.98
2023-01-13T07:36:11.741Z,995.99
2023-01-13T07:37:11.709Z,995.95
2023-01-13T07:38:11.717Z,995.81
2023-01-13T07:39:11.671Z,995.81
2023-01-13T07:40:11.650Z,995.74
2023-01-13T07:41:11.672Z,995.72
2023-01-13T07:42:11.652Z,995.69
2023-01-13T07:43:11.649Z,995.58
2023-01-13T07:44:11.639Z,995.50
2023-01-13T07:45:12.466Z,995.42
2023-01-13T07:46:11.643Z,995.43
2023-01-13T07:47:11.612Z,995.43
2023-01-13T07:48:11.598Z,995.49
2023-01-13T07:49:11.589Z,995.55
2023-01-13T07:50:11.546Z,995.61
2023-01-13T07:51:11.638Z,995.74
2023-01-13T07:52:11.559Z,995.81
2023-01-13T07:53:11.539Z,995.87
2023-01-13T07:54:11.513Z,996.00
2023-01-13T07:55:11.536Z,996.09
2023-01-13T07:56:11.597Z,996.16
2023-01-13T07:57:11.495Z,996.20
2023-01-13T07:58:11.545Z,996.22
2023-01-13T07:59:11.505Z,996.19
2023-01-13T08:00:12.930Z,996.15
2023-01-13T08:01:11.527Z,996.10
2023-01-13T08:02:11.597Z,996.04
2023-01-13T08:03:11.579Z,995.99
2023-01-13T08:04:11.395Z,995.99
2023-01-13T08:05:11.426Z,996.00
2023-01-13T08:06:11.392Z,995.95
2023-01-13T08:07:11.429Z,995.96
2023-01-13T08:08:11.390Z,996.01
2023-01-13T08:09:11.377Z,996.01
2023-01-13T08:10:11.336Z,995.99
2023-01-13T08:11:11.339Z,996.00
2023-01-13T08:12:11.329Z,995.96
2023-01-13T08:13:11.345Z,995.95
2023-01-13T08:14:11.307Z,995.95
2023-01-13T08:15:11.302Z,995.94
2023-01-13T08:16:11.487Z,995.96
2023-01-13T08:17:11.278Z,995.98
2023-01-13T08:18:11.332Z,995.98
2023-01-13T08:19:11.293Z,995.97
2023-01-13T08:20:11.300Z,995.95
2023-01-13T08:21:11.266Z,995.93
2023-01-13T08:22:11.269Z,995.97
2023-01-13T08:23:11.223Z,996.00
2023-01-13T08:24:11.266Z,996.02
2023-01-13T08:25:11.210Z,996.05
2023-01-13T08:26:11.242Z,996.09
2023-01-13T08:27:11.168Z,996.12
2023-01-13T08:28:11.202Z,996.15
2023-01-13T08:29:12.999Z,996.16
2023-01-13T08:30:11.175Z,996.17
2023-01-13T08:31:11.145Z,996.18
2023-01-13T08:32:11.387Z,996.20
2023-01-13T08:33:11.128Z,996.24
2023-01-13T08:34:11.132Z,996.25
2023-01-13T08:35:11.112Z,996.25
2023-01-13T08:36:11.084Z,996.30
2023-01-13T08:37:11.077Z,996.26
2023-01-13T08:38:11.095Z,996.29
2023-01-13T08:39:11.044Z,996.24
2023-01-13T08:40:11.066Z,996.34
2023-01-13T08:41:11.053Z,996.32
2023-01-13T08:42:11.037Z,996.37
2023-01-13T08:43:11.000Z,996.39
2023-01-13T08:44:11.021Z,996.41
2023-01-13T08:45:11.028Z,996.48
2023-01-13T08:46:11.059Z,996.45
2023-01-13T08:47:10.985Z,996.54
2023-01-13T08:48:11.019Z,996.53
2023-01-13T08:49:10.950Z,996.53
2023-01-13T08:50:10.992Z,996.55
2023-01-13T08:51:10.922Z,996.58
2023-01-13T08:52:10.962Z,996.57
2023-01-13T08:53:10.899Z,996.64
2023-01-13T08:54:10.915Z,996.65
2023-01-13T08:55:10.884Z,996.68
2023-01-13T08:56:11.029Z,996.70
2023-01-13T08:57:10.994Z,996.67
2023-01-13T08:58:15.670Z,996.62
2023-01-13T08:59:11.896Z,996.63
2023-01-13T09:00:10.879Z,996.61
2023-01-13T09:01:10.961Z,996.66
2023-01-13T09:02:11.068Z,996.66
2023-01-13T09:03:10.872Z,996.64
2023-01-13T09:04:10.839Z,996.63
2023-01-13T09:05:11.015Z,996.68
2023-01-13T09:06:10.814Z,996.70
2023-01-13T09:07:10.815Z,996.68
2023-01-13T09:08:10.791Z,996.67
2023-01-13T09:09:10.746Z,996.72
2023-01-13T09:10:10.776Z,996.73
2023-01-13T09:11:10.728Z,996.73
2023-01-13T09:12:10.733Z,996.71
2023-01-13T09:13:10.745Z,996.70
2023-01-13T09:14:10.759Z,996.73
2023-01-13T09:15:10.756Z,996.77
2023-01-13T09:16:10.736Z,996.71
2023-01-13T09:17:10.689Z,996.71
2023-01-13T09:18:10.932Z,996.71
2023-01-13T09:19:10.654Z,996.70
2023-01-13T09:20:10.647Z,996.72
2023-01-13T09:21:10.670Z,996.73
2023-01-13T09:22:10.695Z,996.71
2023-01-13T09:23:11.465Z,996.72
2023-01-13T09:24:10.620Z,996.68
2023-01-13T09:25:10.563Z,996.69
2023-01-13T09:26:10.581Z,996.70
2023-01-13T09:27:10.555Z,996.64
2023-01-13T09:28:10.634Z,996.73
2023-01-13T09:29:10.549Z,996.71
2023-01-13T09:30:10.571Z,996.70
2023-01-13T09:31:10.663Z,996.69
2023-01-13T09:32:10.527Z,996.73
2023-01-13T09:33:10.578Z,996.70
2023-01-13T09:34:10.522Z,996.74
2023-01-13T09:35:10.487Z,996.77
2023-01-13T09:36:10.513Z,996.80
2023-01-13T09:37:10.449Z,996.80
2023-01-13T09:38:10.469Z,996.77
2023-01-13T09:39:10.488Z,996.88
2023-01-13T09:40:10.473Z,996.90
2023-01-13T09:41:10.446Z,996.88
2023-01-13T09:42:10.665Z,996.88
2023-01-13T09:43:10.472Z,996.88
2023-01-13T09:44:10.420Z,996.92
2023-01-13T09:45:10.438Z,996.90
2023-01-13T09:46:10.435Z,996.91
2023-01-13T09:47:12.040Z,996.87
2023-01-13T09:48:10.410Z,996.92
2023-01-13T09:49:10.331Z,996.92
2023-01-13T09:50:10.361Z,996.89
2023-01-13T09:51:10.387Z,996.91
2023-01-13T09:52:10.308Z,996.92
2023-01-13T09:53:10.319Z,996.93
2023-01-13T09:54:10.304Z,997.00
2023-01-13T09:55:10.306Z,997.02
2023-01-13T09:56:10.294Z,997.00
2023-01-13T09:57:10.266Z,996.96
2023-01-13T09:58:10.292Z,996.99
2023-01-13T09:59:10.279Z,996.99
2023-01-13T10:00:10.236Z,996.95
2023-01-13T10:01:10.238Z,996.99
2023-01-13T10:02:10.263Z,997.02
2023-01-13T10:03:10.265Z,996.94
2023-01-13T10:04:10.185Z,997.03
2023-01-13T10:05:10.292Z,997.00
2023-01-13T10:06:10.198Z,996.93
2023-01-13T10:07:10.177Z,996.97
2023-01-13T10:08:10.155Z,997.00
2023-01-13T10:09:10.111Z,996.96
2023-01-13T10:10:10.129Z,997.04
2023-01-13T10:11:10.147Z,997.14
2023-01-13T10:12:10.136Z,997.10
2023-01-13T10:13:10.123Z,997.08
2023-01-13T10:14:10.088Z,997.05
2023-01-13T10:15:10.077Z,997.11
2023-01-13T10:16:10.232Z,997.04
2023-01-13T10:17:10.040Z,997.12
2023-01-13T10:18:10.071Z,997.08
2023-01-13T10:19:10.040Z,997.11
2023-01-13T10:20:10.075Z,997.07
2023-01-13T10:21:10.016Z,997.12
2023-01-13T10:22:10.006Z,997.11
2023-01-13T10:23:09.999Z,997.08
2023-01-13T10:24:09.996Z,997.12
2023-01-13T10:25:09.969Z,997.11
2023-01-13T10:26:10.096Z,997.12
2023-01-13T10:27:09.988Z,997.12
2023-01-13T10:28:09.941Z,997.14
2023-01-13T10:29:10.016Z,997.09
2023-01-13T10:30:10.160Z,997.07
2023-01-13T10:31:09.987Z,997.07
2023-01-13T10:32:09.980Z,997.07
2023-01-13T10:33:10.352Z,997.12
2023-01-13T10:34:09.891Z,997.11
2023-01-13T10:35:09.869Z,997.11
2023-01-13T10:36:09.897Z,997.08
2023-01-13T10:37:09.858Z,997.04
2023-01-13T10:38:09.877Z,997.03
2023-01-13T10:39:09.861Z,997.06
2023-01-13T10:40:09.868Z,997.12
2023-01-13T10:41:09.818Z,997.07
2023-01-13T10:42:09.832Z,997.03
2023-01-13T10:43:09.828Z,997.10
2023-01-13T10:44:09.896Z,997.14
2023-01-13T10:45:09.754Z,997.04
2023-01-13T10:46:09.768Z,997.03
2023-01-13T10:47:09.737Z,997.05
2023-01-13T10:48:09.805Z,996.96
2023-01-13T10:49:09.735Z,996.90
2023-01-13T10:50:09.903Z,996.90
2023-01-13T10:51:09.747Z,996.81
2023-01-13T10:52:09.750Z,996.88
2023-01-13T10:53:09.713Z,996.81
2023-01-13T10:54:09.700Z,996.91
2023-01-13T10:55:09.698Z,996.85
2023-01-13T10:56:09.746Z,996.93
2023-01-13T10:57:09.673Z,996.87
2023-01-13T10:58:09.680Z,996.94
2023-01-13T10:59:09.702Z,996.94
2023-01-13T11:00:09.626Z,996.93
2023-01-13T11:01:09.669Z,996.94
2023-01-13T11:02:24.268Z,996.90
2023-01-13T11:03:10.599Z,996.97
2023-01-13T11:04:09.828Z,996.94
2023-01-13T11:05:09.596Z,996.95
2023-01-13T11:06:09.555Z,996.94
2023-01-13T11:07:09.605Z,996.91
2023-01-13T11:08:09.613Z,996.92
2023-01-13T11:09:09.554Z,996.91
2023-01-13T11:10:09.519Z,996.79
2023-01-13T11:11:09.543Z,996.81
2023-01-13T11:12:09.490Z,996.76
2023-01-13T11:13:09.486Z,996.77
2023-01-13T11:14:09.531Z,996.79
2023-01-13T11:15:09.612Z,996.73
2023-01-13T11:16:09.474Z,996.69
2023-01-13T11:17:09.443Z,996.78
2023-01-13T11:18:09.451Z,996.75
2023-01-13T11:19:09.443Z,996.78
2023-01-13T11:20:09.440Z,996.79
2023-01-13T11:21:09.389Z,996.83
2023-01-13T11:22:09.462Z,996.81
2023-01-13T11:23:09.453Z,996.79
2023-01-13T11:24:09.390Z,996.83
2023-01-13T11:25:09.450Z,996.84
2023-01-13T11:26:09.373Z,996.80
2023-01-13T11:27:09.370Z,996.81
2023-01-13T11:28:09.363Z,996.84
2023-01-13T11:29:09.324Z,996.86
2023-01-13T11:30:09.299Z,996.86
2023-01-13T11:31:09.329Z,996.68
2023-01-13T11:32:09.358Z,996.82
2023-01-13T11:33:09.299Z,996.83
2023-01-13T11:34:09.273Z,996.81
2023-01-13T11:35:09.297Z,996.83
2023-01-13T11:36:09.300Z,996.89
2023-01-13T11:37:09.321Z,996.90
2023-01-13T11:38:09.223Z,996.93
2023-01-13T11:39:09.221Z,996.94
2023-01-13T11:40:09.255Z,996.94
2023-01-13T11:41:09.213Z,996.98
2023-01-13T11:42:09.195Z,996.90
2023-01-13T11:43:09.172Z,996.87
2023-01-13T11:44:09.184Z,996.91
2023-01-13T11:45:09.203Z,996.92
2023-01-13T11:46:09.152Z,996.95
2023-01-13T11:47:09.130Z,996.92
2023-01-13T11:48:09.141Z,996.97
2023-01-13T11:49:09.108Z,997.10
2023-01-13T11:50:09.093Z,996.91
2023-01-13T11:51:09.097Z,996.93
2023-01-13T11:52:09.116Z,997.01
2023-01-13T11:53:09.054Z,997.09
2023-01-13T11:54:09.082Z,996.96
2023-01-13T11:55:09.092Z,996.97
2023-01-13T11:56:09.076Z,996.98
2023-01-13T11:57:09.031Z,996.98
2023-01-13T11:58:09.019Z,996.93
2023-01-13T11:59:09.024Z,996.97
2023-01-13T12:00:09.017Z,996.89
2023-01-13T12:01:09.094Z,996.83
2023-01-13T12:02:09.207Z,996.92
2023-01-13T12:03:09.056Z,996.85
2023-01-13T12:04:08.977Z,996.92
2023-01-13T12:05:08.959Z,996.94
2023-01-13T12:06:08.983Z,997.01
2023-01-13T12:07:08.962Z,996.97
2023-01-13T12:08:08.917Z,996.98
2023-01-13T12:09:08.905Z,996.91
2023-01-13T12:10:13.251Z,996.99
2023-01-13T12:11:08.919Z,997.02
2023-01-13T12:12:08.910Z,996.96
2023-01-13T12:13:08.871Z,997.06
2023-01-13T12:14:08.912Z,997.01
2023-01-13T12:15:08.879Z,997.12
2023-01-13T12:16:08.895Z,997.14
2023-01-13T12:17:08.858Z,996.99
2023-01-13T12:18:08.847Z,997.05
2023-01-13T12:19:08.854Z,997.12
2023-01-13T12:20:08.818Z,997.08
2023-01-13T12:21:08.782Z,997.09
2023-01-13T12:22:09.037Z,997.18
2023-01-13T12:23:08.758Z,997.15
2023-01-13T12:24:08.756Z,997.19
2023-01-13T12:25:08.745Z,997.13
2023-01-13T12:26:08.768Z,997.10
2023-01-13T12:27:08.726Z,997.13
2023-01-13T12:28:08.739Z,997.20
2023-01-13T12:29:08.723Z,997.22
2023-01-13T12:30:08.774Z,997.08
2023-01-13T12:31:08.667Z,997.16
2023-01-13T12:32:08.690Z,997.21